Time;durP1;ratioP1;P1;durP2;ratioP2;P2;SDS_P1;SDS_P2;PMS_P1;PMS_P2;Temp;Humidity;BMP_temperature;BMP_pressure;BME280_temperature;BME280_humidity;BME280_pressure;Samples;Min_cycle;Max_cycle;Signal;HPM_P1;HPM_P2
2022/01/23 00:01:16;;;;;;;6.42;4.08;;;;;;;-2.35;69.00;99144.80;1769538;79;20937;-41
2022/01/23 00:03:47;;;;;;;6.03;3.98;;;;;;;-2.35;68.95;99136.83;1791449;79;20917;-41
2022/01/23 00:06:12;;;;;;;6.17;3.90;;;;;;;-2.34;68.89;99141.87;1771287;79;21619;-41
2022/01/23 00:08:39;;;;;;;6.42;4.37;;;;;;;-2.34;68.86;99152.48;1746437;80;21142;-41
2022/01/23 00:11:07;;;;;;;8.43;4.50;;;;;;;-2.32;69.08;99146.87;1795935;79;20945;-41
2022/01/23 00:17:16;;;;;;;8.23;5.05;;;;;;;-2.24;68.95;99148.41;1802870;79;21005;-41
2022/01/23 00:18:49;;;;;;;7.97;4.12;;;;;;;-2.17;68.73;99159.22;1771347;81;20934;-41
2022/01/23 00:21:16;;;;;;;7.15;4.20;;;;;;;-2.16;68.77;99157.63;1794786;79;21800;-40
2022/01/23 00:31:41;;;;;;;5.65;4.10;;;;;;;-1.96;68.44;99161.94;1778597;78;20974;-41
2022/01/23 00:34:08;;;;;;;5.95;3.62;;;;;;;-1.89;68.20;99161.08;1803049;79;21156;-41
2022/01/23 00:36:39;;;;;;;6.72;4.08;;;;;;;-1.92;68.12;99158.96;1794190;79;20942;-41
2022/01/23 00:39:03;;;;;;;6.22;4.20;;;;;;;-1.89;68.11;99163.73;1770233;79;20941;-41
2022/01/23 00:41:30;;;;;;;6.85;4.03;;;;;;;-1.87;68.27;99165.55;1780954;79;20993;-41
2022/01/23 00:43:57;;;;;;;6.37;4.25;;;;;;;-1.80;68.03;99156.72;1785152;79;20975;-41
2022/01/23 00:46:31;;;;;;;6.72;4.45;;;;;;;-1.80;67.92;99162.03;1787334;79;21547;-41
2022/01/23 00:51:28;;;;;;;7.08;3.77;;;;;;;-1.80;67.75;99159.38;1774869;79;20961;-41
2022/01/23 00:53:56;;;;;;;6.53;4.62;;;;;;;-1.81;67.74;99156.45;1790448;79;21096;-41
2022/01/23 00:56:22;;;;;;;7.50;4.45;;;;;;;-1.80;67.81;99158.84;1768639;79;21056;-41
2022/01/23 00:58:49;;;;;;;5.50;4.17;;;;;;;-1.82;67.82;99158.32;1769082;79;21121;-40
2022/01/23 01:01:16;;;;;;;7.58;4.37;;;;;;;-1.78;67.74;99159.86;1788611;79;21559;-41
2022/01/23 01:03:43;;;;;;;7.30;4.47;;;;;;;-1.81;67.76;99157.25;1793615;79;20934;-41
2022/01/23 01:06:09;;;;;;;6.75;4.12;;;;;;;-1.79;67.74;99162.27;1799732;79;21049;-41
2022/01/23 01:08:36;;;;;;;6.33;4.15;;;;;;;-1.81;67.76;99161.77;1799614;78;21056;-41
2022/01/23 01:11:31;;;;;;;6.05;4.20;;;;;;;-1.81;67.66;99157.78;1797150;79;21524;-41
2022/01/23 01:14:09;;;;;;;7.10;4.75;;;;;;;-1.81;67.74;99160.44;1793183;79;21512;-41
2022/01/23 01:35:29;;;;;;;7.53;5.03;;;;;;;-1.82;67.48;99166.83;1785779;79;21486;-42
2022/01/23 01:37:53;;;;;;;7.95;5.12;;;;;;;-1.84;67.41;99176.96;1793386;79;21135;-42
2022/01/23 01:40:21;;;;;;;8.80;5.10;;;;;;;-1.88;67.45;99173.26;1777571;79;20930;-42
2022/01/23 01:42:48;;;;;;;8.50;5.33;;;;;;;-1.89;67.47;99170.37;1768716;79;20977;-42
2022/01/23 01:45:26;;;;;;;7.30;5.40;;;;;;;-1.91;67.29;99173.84;1778541;79;21551;-42
2022/01/23 01:47:59;;;;;;;8.63;5.30;;;;;;;-2.00;67.61;99172.34;1799346;79;21041;-42
2022/01/23 01:50:27;;;;;;;8.80;5.58;;;;;;;-1.96;67.69;99175.22;1797753;79;21118;-42
2022/01/23 01:52:56;;;;;;;9.55;5.65;;;;;;;-1.93;67.59;99174.11;1768997;79;21260;-42
2022/01/23 01:55:31;;;;;;;9.43;5.95;;;;;;;-1.92;67.47;99173.04;1796648;78;21073;-42
2022/01/23 01:58:01;;;;;;;8.40;5.67;;;;;;;-1.81;67.25;99180.38;1794070;79;20910;-42
2022/01/23 02:00:55;;;;;;;9.93;5.33;;;;;;;-1.81;67.07;99180.38;1769311;79;21484;-42
2022/01/23 02:08:53;;;;;;;9.38;5.83;;;;;;;-1.80;66.74;99185.95;1743076;82;21001;-42
2022/01/23 02:11:35;;;;;;;9.00;5.97;;;;;;;-1.80;66.52;99183.29;1740942;82;20942;-42
2022/01/23 02:14:08;;;;;;;7.40;5.20;;;;;;;-1.86;66.57;99191.05;1740434;82;21014;-41
2022/01/23 02:52:15;;;;;;;9.23;6.55;;;;;;;-0.97;64.84;99238.09;1753915;81;20944;-42
2022/01/23 02:57:32;;;;;;;9.60;6.42;;;;;;;-0.91;64.66;99238.28;1752737;81;21121;-42
2022/01/23 02:59:49;;;;;;;11.35;6.80;;;;;;;-0.87;64.53;99235.30;1681001;84;21037;-42
2022/01/23 03:02:34;;;;;;;10.35;7.22;;;;;;;-0.82;64.35;99234.44;1678551;82;21499;-42
2022/01/23 03:05:01;;;;;;;10.15;7.00;;;;;;;-0.78;64.32;99242.66;1742312;82;20981;-42
2022/01/23 03:07:49;;;;;;;8.73;6.28;;;;;;;-0.78;64.15;99237.34;1715435;82;21041;-42
2022/01/23 03:10:03;;;;;;;9.30;5.92;;;;;;;-0.81;64.12;99244.01;1720284;81;21906;-42
2022/01/23 03:26:21;;;;;;;9.75;6.12;;;;;;;-0.77;64.10;99270.30;1708695;82;21073;-42
2022/01/23 03:29:03;;;;;;;7.05;5.45;;;;;;;-0.87;63.98;99276.55;1707119;82;20974;-42
2022/01/23 03:31:25;;;;;;;10.13;5.70;;;;;;;-0.99;64.28;99281.50;1710322;82;21731;-41
2022/01/23 03:33:49;;;;;;;6.92;4.90;;;;;;;-1.13;64.52;99281.95;1718615;82;21045;-41
2022/01/23 03:36:16;;;;;;;8.50;5.92;;;;;;;-1.14;64.58;99277.70;1733186;82;21817;-41
2022/01/23 03:38:43;;;;;;;9.98;5.85;;;;;;;-1.18;64.66;99282.00;1736419;82;20977;-42
2022/01/23 03:41:11;;;;;;;8.65;5.15;;;;;;;-1.21;64.81;99286.55;1719616;83;20997;-41
2022/01/23 03:43:40;;;;;;;8.30;5.53;;;;;;;-1.23;64.75;99284.72;1737588;82;21068;-42
2022/01/23 03:46:22;;;;;;;9.53;5.55;;;;;;;-1.32;65.00;99291.21;1711385;82;21046;-42
2022/01/23 03:51:12;;;;;;;9.13;5.42;;;;;;;-1.39;64.99;99298.72;1726174;82;20940;-42
2022/01/23 03:53:40;;;;;;;8.33;5.63;;;;;;;-1.46;65.02;99302.80;1719141;82;20968;-42
2022/01/23 03:56:07;;;;;;;8.28;5.75;;;;;;;-1.50;65.22;99306.53;1713632;82;21049;-42
2022/01/23 03:58:34;;;;;;;8.68;6.25;;;;;;;-1.53;65.19;99309.77;1713257;83;21097;-42
2022/01/23 04:01:03;;;;;;;6.87;5.33;;;;;;;-1.60;65.40;99317.30;1713307;82;21766;-42
2022/01/23 04:03:32;;;;;;;7.85;5.72;;;;;;;-1.58;65.54;99319.12;1734718;82;21579;-42
2022/01/23 04:05:59;;;;;;;7.35;5.70;;;;;;;-1.57;65.60;99323.37;1739968;82;21008;-42
2022/01/23 04:08:26;;;;;;;8.80;5.35;;;;;;;-1.54;65.44;99324.13;1714678;82;21052;-42
2022/01/23 04:10:53;;;;;;;10.30;5.95;;;;;;;-1.59;65.40;99320.19;1713310;82;21032;-42
2022/01/23 04:13:27;;;;;;;8.98;6.20;;;;;;;-1.64;65.47;99328.20;1736631;82;21129;-42
2022/01/23 04:16:04;;;;;;;8.73;5.97;;;;;;;-1.75;65.31;99328.06;1712135;82;21159;-42
2022/01/23 04:34:30;;;;;;;8.75;5.97;;;;;;;-2.29;65.47;99389.27;1736136;82;21060;-42
2022/01/23 05:01:23;;;;;;;15.30;8.90;;;;;;;-2.72;64.29;99437.25;1719785;82;21096;-42
2022/01/23 05:06:24;;;;;;;16.42;9.23;;;;;;;-2.80;63.48;99461.66;1740955;80;21109;-42
2022/01/23 05:08:55;;;;;;;17.12;9.68;;;;;;;-2.86;63.43;99468.06;1765506;79;21025;-43
2022/01/23 05:11:23;;;;;;;16.00;9.83;;;;;;;-3.03;63.62;99476.30;1760805;79;20989;-42
2022/01/23 05:13:53;;;;;;;15.58;10.28;;;;;;;-3.10;63.58;99481.86;1768058;79;21025;-42
2022/01/23 05:16:20;;;;;;;16.87;9.93;;;;;;;-3.10;63.73;99479.77;1768773;79;20966;-42
2022/01/23 05:18:47;;;;;;;18.37;9.65;;;;;;;-3.16;63.54;99483.48;1795167;79;21143;-42
2022/01/23 05:21:44;;;;;;;16.67;9.30;;;;;;;-3.19;63.57;99487.44;1797029;79;20954;-42
2022/01/23 05:23:42;;;;;;;15.80;9.13;;;;;;;-3.30;63.10;99492.50;1781336;79;21013;-42
2022/01/23 05:26:09;;;;;;;15.45;10.10;;;;;;;-3.42;63.13;99494.60;1783874;79;21058;-42
2022/01/23 05:28:37;;;;;;;16.73;10.05;;;;;;;-3.51;63.11;99500.17;1797356;79;21025;-42
2022/01/23 05:31:03;;;;;;;14.87;9.93;;;;;;;-3.61;63.42;99505.45;1783137;79;21487;-42
2022/01/23 05:33:30;;;;;;;15.98;9.33;;;;;;;-3.69;63.33;99519.22;1765908;79;20997;-42
2022/01/23 05:35:56;;;;;;;15.10;9.65;;;;;;;-3.83;63.43;99512.84;1766123;79;21563;-42
2022/01/23 05:38:23;;;;;;;17.00;11.10;;;;;;;-3.93;63.53;99519.43;1761853;80;21523;-43
2022/01/23 05:40:56;;;;;;;19.25;11.63;;;;;;;-3.99;63.95;99526.03;1770336;80;21030;-42
2022/01/23 05:43:20;;;;;;;15.40;9.43;;;;;;;-3.97;64.07;99521.81;1773204;79;21910;-42
2022/01/23 05:45:47;;;;;;;15.75;10.93;;;;;;;-3.90;63.62;99532.94;1725310;82;21002;-42
2022/01/23 05:48:17;;;;;;;16.75;10.30;;;;;;;-3.97;63.26;99549.06;1715989;82;21025;-42
2022/01/23 05:50:49;;;;;;;16.45;10.32;;;;;;;-3.99;63.31;99556.48;1723497;82;21567;-42
2022/01/23 05:53:30;;;;;;;16.85;10.08;;;;;;;-3.97;63.01;99554.36;1712349;82;21045;-42
2022/01/23 05:56:05;;;;;;;17.50;10.25;;;;;;;-4.05;62.84;99554.86;1726425;82;21150;-42
2022/01/23 05:58:35;;;;;;;19.25;11.12;;;;;;;-4.12;62.92;99554.32;1731526;82;21086;-42
2022/01/23 06:01:02;;;;;;;19.20;11.03;;;;;;;-4.10;63.11;99556.16;1727813;82;21067;-42
2022/01/23 06:03:30;;;;;;;17.70;10.98;;;;;;;-4.00;62.79;99558.05;1742925;82;21520;-42
2022/01/23 06:05:58;;;;;;;17.75;11.30;;;;;;;-3.93;62.45;99559.16;1819073;78;21053;-42
2022/01/23 06:08:27;;;;;;;20.55;10.70;;;;;;;-3.95;62.16;99560.20;1792567;78;21086;-42
2022/01/23 06:10:56;;;;;;;16.67;10.58;;;;;;;-3.93;62.04;99566.57;1790274;80;20997;-42
2022/01/23 06:13:26;;;;;;;14.53;9.83;;;;;;;-3.89;61.91;99578.76;1790775;79;20999;-43
2022/01/23 06:15:55;;;;;;;17.17;10.15;;;;;;;-3.88;61.84;99583.80;1791276;80;21504;-42
2022/01/23 06:18:22;;;;;;;17.75;10.93;;;;;;;-3.91;61.93;99582.18;1828030;78;21068;-42
2022/01/23 06:21:08;;;;;;;19.12;10.70;;;;;;;-3.95;62.04;99586.68;1811287;78;21120;-42
2022/01/23 06:23:42;;;;;;;18.17;10.15;;;;;;;-3.95;61.86;99591.18;1747447;81;20969;-42
2022/01/23 06:26:11;;;;;;;23.47;12.85;;;;;;;-4.00;61.71;99597.25;1722312;83;21010;-42
2022/01/23 06:28:57;;;;;;;19.92;11.30;;;;;;;-4.09;61.84;99592.70;1696876;83;21001;-42
2022/01/23 06:31:24;;;;;;;20.55;11.48;;;;;;;-4.11;61.89;99600.09;1757002;81;21064;-42
2022/01/23 06:33:50;;;;;;;28.23;16.30;;;;;;;-4.11;62.03;99607.52;1741519;80;21134;-42
2022/01/23 06:36:17;;;;;;;23.45;12.95;;;;;;;-4.03;62.08;99602.27;1744441;82;21105;-42
2022/01/23 06:38:44;;;;;;;18.40;11.65;;;;;;;-3.88;61.89;99614.27;1733977;82;21033;-42
2022/01/23 06:41:11;;;;;;;20.25;12.35;;;;;;;-3.81;61.81;99621.42;1777422;80;21017;-42
2022/01/23 06:43:42;;;;;;;18.90;10.93;;;;;;;-3.71;61.67;99624.64;1729482;80;20994;-42
2022/01/23 06:46:13;;;;;;;17.65;10.05;;;;;;;-3.63;61.34;99625.48;1767929;79;21131;-42
2022/01/23 06:48:40;;;;;;;17.92;11.00;;;;;;;-3.66;60.77;99633.94;1768209;81;21576;-42
2022/01/23 06:51:07;;;;;;;18.90;10.95;;;;;;;-3.66;60.47;99635.27;1770443;80;21000;-42
2022/01/23 06:53:35;;;;;;;20.92;10.88;;;;;;;-3.74;60.57;99637.09;1785573;79;21020;-42
2022/01/23 06:56:02;;;;;;;18.05;10.43;;;;;;;-3.71;60.57;99640.54;1800290;79;21038;-43
2022/01/23 06:58:31;;;;;;;18.55;10.85;;;;;;;-3.77;60.23;99641.56;1791876;79;21773;-42
2022/01/23 07:00:58;;;;;;;17.75;10.28;;;;;;;-3.77;60.21;99642.89;1768433;79;20967;-42
2022/01/23 07:03:35;;;;;;;17.75;10.38;;;;;;;-3.80;59.95;99647.39;1792218;79;20977;-42
2022/01/23 07:06:13;;;;;;;18.85;10.93;;;;;;;-3.89;60.23;99646.29;1782531;79;20968;-42
2022/01/23 07:08:47;;;;;;;19.90;11.10;;;;;;;-3.85;60.16;99659.28;1765438;79;21452;-42
2022/01/23 07:11:32;;;;;;;17.77;10.32;;;;;;;-3.93;59.83;99666.41;1799251;79;21129;-42
2022/01/23 07:14:17;;;;;;;20.30;12.15;;;;;;;-4.13;60.23;99677.15;1794419;79;20973;-42
2022/01/23 07:16:58;;;;;;;19.27;11.50;;;;;;;-4.20;60.94;99684.50;1799323;79;20973;-42
2022/01/23 07:19:28;;;;;;;19.87;11.63;;;;;;;-4.15;61.11;99691.67;1794207;79;20919;-42
2022/01/23 07:21:56;;;;;;;20.27;12.60;;;;;;;-4.13;61.28;99688.26;1789830;79;21057;-42
2022/01/23 07:24:23;;;;;;;22.50;11.78;;;;;;;-4.13;61.53;99689.59;1768529;79;21109;-42
2022/01/23 07:26:50;;;;;;;19.35;12.40;;;;;;;-4.09;61.51;99690.66;1768159;79;20996;-42
2022/01/23 07:29:18;;;;;;;18.85;11.78;;;;;;;-4.07;61.69;99693.34;1760955;81;21484;-43
2022/01/23 07:32:08;;;;;;;19.67;11.80;;;;;;;-3.97;61.65;99702.65;1774097;79;20987;-42
2022/01/23 07:34:13;;;;;;;20.60;11.75;;;;;;;-3.92;61.40;99707.17;1792346;79;21531;-42
2022/01/23 07:36:41;;;;;;;17.37;11.57;;;;;;;-3.92;61.52;99720.97;1775415;79;21932;-42
2022/01/23 07:39:18;;;;;;;20.12;11.00;;;;;;;-3.92;61.53;99723.62;1758033;81;21053;-43
2022/01/23 07:41:47;;;;;;;20.90;11.60;;;;;;;-3.95;61.67;99731.00;1761631;80;21045;-42
2022/01/23 07:44:21;;;;;;;18.15;11.68;;;;;;;-3.95;61.69;99734.98;1765888;80;21041;-42
2022/01/23 07:46:52;;;;;;;21.68;11.95;;;;;;;-3.97;61.92;99736.30;1740878;80;21076;-42
2022/01/23 07:49:33;;;;;;;20.00;12.28;;;;;;;-4.01;62.17;99737.31;1762843;78;21145;-42
2022/01/23 07:52:10;;;;;;;21.75;11.88;;;;;;;-3.96;62.34;99740.00;1714438;82;21052;-42
2022/01/23 07:54:38;;;;;;;55.43;21.37;;;;;;;-3.91;62.19;99737.11;1790188;79;21061;-42
2022/01/23 07:57:19;;;;;;;55.43;21.85;;;;;;;-3.95;62.39;99737.62;1742489;79;21084;-42
2022/01/23 07:59:56;;;;;;;28.42;14.87;;;;;;;-3.89;62.61;99744.28;1759983;80;21076;-42
2022/01/23 08:02:41;;;;;;;53.58;21.87;;;;;;;-3.90;62.57;99742.68;1771221;80;21135;-43
2022/01/23 08:05:10;;;;;;;102.55;33.33;;;;;;;-3.89;62.96;99755.68;1773620;80;20967;-42
2022/01/23 08:07:39;;;;;;;76.90;25.57;;;;;;;-3.76;62.93;99768.99;1777830;78;21069;-43
2022/01/23 08:10:15;;;;;;;53.63;24.65;;;;;;;-3.81;62.93;99745.12;1731271;79;21528;-43
2022/01/23 08:12:42;;;;;;;26.23;14.33;;;;;;;-3.59;62.82;99780.23;1788014;79;21065;-43
2022/01/23 08:15:10;;;;;;;20.82;12.55;;;;;;;-3.52;62.68;99773.64;1786961;79;21496;-42
2022/01/23 08:17:37;;;;;;;20.37;12.53;;;;;;;-3.53;62.85;99777.34;1790056;79;21518;-42
2022/01/23 08:20:06;;;;;;;22.30;13.18;;;;;;;-3.44;62.90;99790.13;1783275;79;21061;-43
2022/01/23 08:22:33;;;;;;;14.03;8.33;;;;;;;-3.33;62.65;99794.41;1782942;78;21544;-42
2022/01/23 08:25:02;;;;;;;20.30;11.53;;;;;;;-3.20;62.36;99795.29;1787531;79;21075;-42
2022/01/23 08:27:29;;;;;;;15.63;9.40;;;;;;;-3.11;62.14;99797.71;1783241;79;21098;-42
2022/01/23 08:29:58;;;;;;;17.82;10.85;;;;;;;-3.08;61.81;99811.24;1781578;79;21595;-42
2022/01/23 08:32:25;;;;;;;19.20;11.68;;;;;;;-3.03;61.75;99818.95;1783242;79;21008;-43
2022/01/23 08:34:52;;;;;;;22.42;12.50;;;;;;;-2.99;61.63;99822.67;1772099;80;20965;-43
2022/01/23 08:37:19;;;;;;;18.32;11.45;;;;;;;-2.91;61.80;99830.95;1787288;79;21021;-43
2022/01/23 08:39:46;;;;;;;18.00;11.48;;;;;;;-2.75;61.73;99830.45;1774002;80;21874;-43
2022/01/23 08:42:15;;;;;;;17.60;10.60;;;;;;;-2.62;61.57;99832.64;1778569;80;21554;-43
2022/01/23 08:44:44;;;;;;;20.27;11.55;;;;;;;-2.53;61.39;99843.02;1783795;79;20985;-42
2022/01/23 08:47:11;;;;;;;19.05;10.43;;;;;;;-2.44;61.35;99853.39;1791458;79;21798;-43
2022/01/23 08:49:45;;;;;;;17.75;10.85;;;;;;;-2.35;61.10;99854.47;1802504;79;21044;-42
2022/01/23 08:52:07;;;;;;;14.40;8.13;;;;;;;-2.34;61.07;99855.27;1775570;78;21139;-42
2022/01/23 08:54:34;;;;;;;19.12;11.18;;;;;;;-2.34;61.20;99857.39;1767107;79;21515;-42
2022/01/23 08:57:01;;;;;;;16.07;10.05;;;;;;;-2.26;61.25;99862.70;1764641;80;20998;-43
2022/01/23 08:59:28;;;;;;;17.30;9.93;;;;;;;-2.23;61.29;99862.20;1779934;80;20926;-43
2022/01/23 09:01:54;;;;;;;17.37;10.70;;;;;;;-2.16;61.24;99869.90;1764281;80;21044;-43
2022/01/23 09:04:21;;;;;;;15.90;10.90;;;;;;;-2.09;61.12;99873.11;1790228;79;21893;-42
2022/01/23 09:06:48;;;;;;;16.57;10.18;;;;;;;-2.11;61.14;99881.33;1774329;80;20978;-43
2022/01/23 09:09:20;;;;;;;17.92;11.28;;;;;;;-2.08;61.32;99877.37;1780425;80;21524;-42
2022/01/23 09:12:10;;;;;;;18.27;10.40;;;;;;;-2.04;61.21;99878.43;1768297;80;20990;-42
2022/01/23 09:14:35;;;;;;;18.67;11.48;;;;;;;-2.06;61.22;99876.56;1766386;80;21523;-42
2022/01/23 09:17:03;;;;;;;17.52;10.72;;;;;;;-2.07;61.31;99882.39;1789750;80;21128;-43
2022/01/23 09:19:31;;;;;;;16.90;9.75;;;;;;;-2.00;61.23;99880.83;1791528;79;21570;-42
2022/01/23 09:21:57;;;;;;;17.85;10.10;;;;;;;-1.97;61.15;99876.30;1790033;79;21491;-42
2022/01/23 09:24:25;;;;;;;14.75;9.83;;;;;;;-1.98;61.45;99887.98;1791387;80;20954;-43
2022/01/23 09:26:54;;;;;;;15.83;10.25;;;;;;;-1.91;61.65;99895.17;1785054;79;21040;-43
2022/01/23 09:29:34;;;;;;;14.00;7.87;;;;;;;-1.77;61.40;99890.41;1766772;81;21135;-43
2022/01/23 09:31:58;;;;;;;18.30;10.90;;;;;;;-1.63;61.31;99889.34;1766084;81;21531;-42
2022/01/23 09:34:31;;;;;;;17.15;10.88;;;;;;;-1.51;61.06;99885.89;1790231;80;21559;-42
2022/01/23 09:37:02;;;;;;;18.35;10.63;;;;;;;-1.44;60.79;99886.93;1791468;80;20946;-42
2022/01/23 09:39:29;;;;;;;17.55;10.98;;;;;;;-1.42;60.64;99877.64;1780483;79;21108;-42
2022/01/23 09:42:13;;;;;;;15.88;10.23;;;;;;;-1.39;60.41;99879.75;1781985;79;21180;-41
2022/01/23 09:44:51;;;;;;;16.70;10.48;;;;;;;-1.32;60.40;99884.80;1785950;79;21017;-42
2022/01/23 09:47:20;;;;;;;17.17;10.50;;;;;;;-1.21;60.19;99889.58;1768125;81;20945;-43
2022/01/23 09:49:47;;;;;;;16.82;9.45;;;;;;;-1.09;60.12;99898.06;1775775;79;21520;-43
2022/01/23 09:52:14;;;;;;;17.37;10.25;;;;;;;-0.93;60.04;99899.63;1792290;79;21005;-42
2022/01/23 09:54:44;;;;;;;16.65;9.70;;;;;;;-0.84;59.91;99908.64;1782053;79;21093;-43
2022/01/23 09:57:11;;;;;;;13.90;8.87;;;;;;;-0.63;60.01;99912.81;1786568;79;21016;-43
2022/01/23 09:59:40;;;;;;;12.80;8.40;;;;;;;-0.44;59.77;99912.47;1771228;78;21082;-42
2022/01/23 10:02:08;;;;;;;12.53;8.30;;;;;;;-0.29;59.31;99912.16;1771090;79;21530;-43
2022/01/23 10:04:35;;;;;;;14.53;8.05;;;;;;;-0.27;58.74;99910.00;1792361;78;21080;-43
2022/01/23 10:07:05;;;;;;;13.00;7.78;;;;;;;-0.29;58.87;99926.25;1791088;79;21238;-43
2022/01/23 10:09:33;;;;;;;11.15;7.33;;;;;;;-0.42;58.63;99934.84;1798395;79;20989;-43
2022/01/23 10:12:00;;;;;;;10.72;7.50;;;;;;;-0.56;59.04;99938.63;1790088;79;20963;-43
2022/01/23 10:14:26;;;;;;;11.80;7.33;;;;;;;-0.71;59.07;99933.89;1786626;79;21021;-43
2022/01/23 10:16:53;;;;;;;11.73;7.70;;;;;;;-0.85;59.60;99943.51;1799229;79;21607;-41
2022/01/23 10:19:20;;;;;;;10.25;6.65;;;;;;;-0.92;60.25;99942.48;1790979;79;21778;-40
2022/01/23 10:21:47;;;;;;;10.00;6.62;;;;;;;-0.99;60.14;99941.41;1780260;79;21110;-40
2022/01/23 10:24:14;;;;;;;11.68;6.05;;;;;;;-1.02;60.45;99947.81;1760357;79;20962;-40
2022/01/23 10:26:49;;;;;;;11.48;6.78;;;;;;;-1.08;60.63;99947.55;1795206;78;21033;-40
2022/01/23 10:29:35;;;;;;;12.90;7.00;;;;;;;-1.18;60.70;99941.70;1790216;79;21483;-41
2022/01/23 10:32:25;;;;;;;9.33;6.55;;;;;;;-1.21;61.12;99948.11;1795510;79;21955;-41
2022/01/23 10:34:48;;;;;;;11.85;7.25;;;;;;;-1.24;61.37;99951.28;1792499;79;21657;-40
2022/01/23 10:37:39;;;;;;;10.08;6.85;;;;;;;-1.21;61.35;99966.73;1800615;79;21025;-40
2022/01/23 10:40:11;;;;;;;10.60;6.40;;;;;;;-1.20;61.68;99962.45;1796714;79;21517;-41
2022/01/23 10:48:13;;;;;;;10.98;6.97;;;;;;;-1.27;62.31;99971.77;1767157;78;21013;-40
2022/01/23 10:50:29;;;;;;;9.85;6.85;;;;;;;-1.27;62.69;99973.91;1760625;80;21904;-40
2022/01/23 10:52:59;;;;;;;10.10;7.10;;;;;;;-1.21;62.68;99976.80;1765910;79;21028;-40
2022/01/23 10:55:33;;;;;;;11.10;7.22;;;;;;;-1.17;62.73;99977.09;1760090;81;21531;-40
2022/01/23 10:58:03;;;;;;;12.68;6.70;;;;;;;-1.17;62.59;99983.74;1775974;80;21083;-41
2022/01/23 11:00:35;;;;;;;10.98;6.25;;;;;;;-1.16;62.75;99983.45;1791148;79;21496;-41
2022/01/23 11:03:23;;;;;;;9.40;6.12;;;;;;;-1.12;62.62;99995.19;1770576;80;21032;-40
2022/01/23 11:05:51;;;;;;;9.00;5.85;;;;;;;-1.08;62.42;100000.77;1781613;80;21513;-41
2022/01/23 11:08:33;;;;;;;9.85;5.75;;;;;;;-1.02;62.40;99997.05;1776857;80;21006;-40
2022/01/23 11:11:04;;;;;;;10.38;5.55;;;;;;;-1.02;61.69;99991.72;1782185;80;21136;-40
2022/01/23 11:19:30;;;;;;;9.60;6.40;;;;;;;-1.02;61.51;100012.48;1769695;80;21548;-41
2022/01/23 11:21:59;;;;;;;9.85;6.10;;;;;;;-1.10;61.84;100025.50;1777241;80;21077;-41
2022/01/23 11:24:41;;;;;;;10.25;6.03;;;;;;;-1.11;62.01;100039.86;1791776;79;21133;-40
2022/01/23 11:27:08;;;;;;;9.83;5.78;;;;;;;-1.13;62.30;100040.67;1768620;80;20969;-41
2022/01/23 11:29:35;;;;;;;8.90;5.80;;;;;;;-1.15;62.39;100048.11;1780806;78;21484;-40
2022/01/23 11:32:02;;;;;;;8.15;5.30;;;;;;;-1.05;62.14;100058.23;1742445;80;21496;-40
2022/01/23 11:34:32;;;;;;;7.75;5.42;;;;;;;-0.97;61.71;100051.03;1750794;81;21559;-40
2022/01/23 11:36:58;;;;;;;8.93;5.28;;;;;;;-0.96;61.21;100054.50;1748215;81;21169;-40
2022/01/23 11:50:49;;;;;;;7.80;5.60;;;;;;;-1.18;60.25;100080.58;1700047;83;21134;-40
2022/01/23 11:54:50;;;;;;;8.63;5.12;;;;;;;-1.31;60.64;100080.01;1795869;79;22558;-39
2022/01/23 11:57:39;;;;;;;6.42;5.10;;;;;;;-1.35;61.03;100090.91;1754059;80;20968;-39
2022/01/23 12:00:26;;;;;;;7.12;4.92;;;;;;;-1.26;60.19;100090.41;1727347;81;21192;-38
2022/01/23 12:03:19;;;;;;;7.22;4.50;;;;;;;-1.30;60.14;100104.75;1717084;82;20960;-39
2022/01/23 12:05:50;;;;;;;7.28;4.37;;;;;;;-1.36;60.06;100102.64;1751825;81;20973;-39
2022/01/23 12:08:32;;;;;;;7.47;4.78;;;;;;;-1.46;60.13;100099.95;1744118;80;20981;-39
2022/01/23 12:17:01;;;;;;;8.73;4.50;;;;;;;-1.62;60.73;100119.56;1723529;81;21562;-38
2022/01/23 12:19:34;;;;;;;7.50;5.30;;;;;;;-1.65;60.97;100122.75;1702665;83;20975;-39
2022/01/23 12:22:41;;;;;;;7.62;5.15;;;;;;;-1.61;61.25;100134.99;1723476;81;21059;-41
2022/01/23 12:25:18;;;;;;;8.58;5.10;;;;;;;-1.57;61.62;100140.05;1723768;83;21036;-42
2022/01/23 12:27:45;;;;;;;8.75;5.40;;;;;;;-1.46;61.51;100135.85;1723395;83;21491;-42
2022/01/23 12:30:30;;;;;;;10.50;5.72;;;;;;;-1.33;61.34;100146.52;1719956;83;21105;-42
2022/01/23 12:33:18;;;;;;;7.58;5.12;;;;;;;-1.20;61.23;100152.66;1693922;84;21027;-42
2022/01/23 12:35:51;;;;;;;8.93;5.50;;;;;;;-1.10;60.94;100148.70;1695505;83;21023;-42
2022/01/23 12:38:18;;;;;;;10.10;5.30;;;;;;;-1.02;60.69;100158.04;1694403;84;21020;-42
2022/01/23 12:40:47;;;;;;;9.00;6.12;;;;;;;-0.90;60.46;100161.23;1694601;84;21124;-42
2022/01/23 12:43:24;;;;;;;8.23;5.70;;;;;;;-0.82;59.91;100170.02;1694533;84;21069;-42
2022/01/23 12:46:05;;;;;;;10.48;6.00;;;;;;;-0.85;60.02;100170.56;1694812;84;21047;-42
2022/01/23 12:48:39;;;;;;;11.85;6.33;;;;;;;-0.81;59.98;100183.61;1694303;84;21055;-42
2022/01/23 12:51:18;;;;;;;8.35;5.75;;;;;;;-0.76;59.82;100190.27;1702662;83;21087;-42
2022/01/23 12:53:50;;;;;;;11.00;6.20;;;;;;;-0.69;59.81;100190.83;1703710;83;22081;-42
2022/01/23 12:56:19;;;;;;;11.57;6.40;;;;;;;-0.64;59.83;100200.15;1715726;83;21594;-42
2022/01/23 12:59:04;;;;;;;12.43;6.97;;;;;;;-0.65;59.94;100197.22;1715930;83;21084;-42
2022/01/23 13:01:28;;;;;;;10.15;6.08;;;;;;;-0.63;60.06;100196.40;1710847;83;21546;-42
2022/01/23 13:03:57;;;;;;;11.25;5.45;;;;;;;-0.65;59.78;100207.87;1715709;83;20989;-42
2022/01/23 13:06:32;;;;;;;10.57;7.00;;;;;;;-0.68;59.52;100208.41;1714873;82;21578;-42
2022/01/23 13:12:25;;;;;;;8.48;6.28;;;;;;;-0.75;59.92;100210.52;1716673;83;20965;-42
2022/01/23 13:31:41;;;;;;;8.78;5.90;;;;;;;-0.94;60.07;100239.48;1689722;84;21026;-42
2022/01/23 13:34:26;;;;;;;9.70;6.10;;;;;;;-0.94;59.95;100252.80;1701285;84;22035;-42
2022/01/23 13:37:10;;;;;;;10.78;6.15;;;;;;;-0.95;60.13;100245.87;1665501;85;21022;-42
2022/01/23 13:39:44;;;;;;;10.23;5.90;;;;;;;-1.00;60.17;100263.15;1673888;85;21033;-42
2022/01/23 13:42:43;;;;;;;11.68;7.33;;;;;;;-1.07;60.31;100274.58;1673487;85;21006;-42
2022/01/23 14:02:16;;;;;;;;;;;;;;;-1.28;60.50;100305.33;1745349;82;22236;-44
2022/01/23 14:05:11;;;;;;;13.72;7.40;;;;;;;-1.30;60.97;100312.23;1743224;81;20113;-43
2022/01/23 14:07:41;;;;;;;13.55;7.85;;;;;;;-1.40;61.42;100312.97;1713667;83;21043;-42
2022/01/23 14:10:25;;;;;;;13.32;7.55;;;;;;;-1.32;61.27;100320.48;1754253;81;21567;-43
2022/01/23 14:12:53;;;;;;;12.30;7.28;;;;;;;-1.33;61.07;100321.54;1763740;81;21096;-42
2022/01/23 14:15:28;;;;;;;15.48;7.78;;;;;;;-1.37;60.93;100323.64;1763783;81;21161;-42
2022/01/23 14:18:06;;;;;;;12.33;8.00;;;;;;;-1.50;61.07;100327.53;1763698;81;21020;-42
2022/01/23 14:20:39;;;;;;;12.37;7.97;;;;;;;-1.51;61.25;100331.28;1756638;81;21571;-43
2022/01/23 14:23:17;;;;;;;13.03;8.53;;;;;;;-1.51;61.26;100327.28;1743088;81;21010;-42
2022/01/23 14:25:58;;;;;;;15.50;9.18;;;;;;;-1.56;61.35;100332.57;1743277;81;21037;-43
2022/01/23 14:28:40;;;;;;;12.50;8.98;;;;;;;-1.54;61.41;100334.42;1741854;81;21204;-41
2022/01/23 14:31:15;;;;;;;14.45;9.50;;;;;;;-1.56;61.43;100333.90;1736736;82;20957;-41
2022/01/23 14:33:39;;;;;;;17.62;10.30;;;;;;;-1.56;61.35;100344.53;1736246;82;21016;-41
2022/01/23 14:36:22;;;;;;;17.60;9.63;;;;;;;-1.54;61.36;100351.71;1739222;82;20930;-41
2022/01/23 14:39:09;;;;;;;16.65;9.10;;;;;;;-1.53;61.34;100355.17;1730164;81;21037;-40
2022/01/23 14:41:39;;;;;;;16.12;9.23;;;;;;;-1.55;61.27;100360.73;1713647;83;21138;-41
2022/01/23 14:44:24;;;;;;;16.32;9.15;;;;;;;-1.65;61.64;100370.00;1713566;83;20993;-40
2022/01/23 14:46:54;;;;;;;15.95;10.08;;;;;;;-1.61;61.69;100375.07;1713541;82;21056;-40
2022/01/23 14:49:23;;;;;;;15.60;9.98;;;;;;;-1.60;61.58;100378.54;1713614;83;20985;-41
2022/01/23 14:51:50;;;;;;;16.02;9.78;;;;;;;-1.62;61.66;100381.97;1732780;82;20982;-40
2022/01/23 14:54:17;;;;;;;17.45;9.95;;;;;;;-1.60;61.55;100379.34;1732046;82;21117;-41
2022/01/23 14:56:44;;;;;;;17.32;9.93;;;;;;;-1.64;61.62;100389.37;1738796;82;20938;-40
2022/01/23 14:59:11;;;;;;;16.70;10.08;;;;;;;-1.65;61.71;100392.59;1741496;81;21021;-41
2022/01/23 15:01:39;;;;;;;14.07;9.78;;;;;;;-1.68;61.87;100397.06;1706627;82;20922;-41
2022/01/23 15:04:08;;;;;;;15.93;10.65;;;;;;;-1.61;61.81;100392.87;1707464;82;20906;-40
2022/01/23 15:06:36;;;;;;;;;;;;;;;-1.57;61.42;100409.92;1708060;84;21798;-41